Terminal Aerodrome Forecast
Issued by NWS Charleston, WV

Home | Current Version | Previous Version | Text Only | Print | Product List | Glossary On
Versions: 1 2 3 4 5 6 7 8 9 10 11 12 13 14 15 16 17 18
858
FTUS41 KRLX 100304 AAA
TAFHTS
TAF AMD
KHTS 100304Z 1003/1024 26009G15KT 4SM -SHSN OVC025
     FM101200 15010G16KT 2SM -SHSN OVC020
     FM101900 25011G16KT P6SM VCSH BKN025
     FM102300 29007KT P6SM BKN025=

USA.gov is the U.S. government's official web portal to all federal, state and local government web resources and services.